Time;durP1;ratioP1;P1;durP2;ratioP2;P2;SDS_P1;SDS_P2;PMS_P1;PMS_P2;Temp;Humidity;BMP_temperature;BMP_pressure;BME280_temperature;BME280_humidity;BME280_pressure;Samples;Min_cycle;Max_cycle;Signal;HPM_P1;HPM_P2
2021/07/09 00:01:13;;;;;;;2.83;2.07;;;;;;;20.57;66.44;101813.47;5057888;28;20205;-67
2021/07/09 00:03:42;;;;;;;4.03;2.47;;;;;;;20.54;66.43;101803.69;5057915;28;20202;-68
2021/07/09 00:06:10;;;;;;;3.90;2.37;;;;;;;20.54;66.80;101798.25;5058077;28;20841;-67
2021/07/09 00:08:38;;;;;;;4.40;2.13;;;;;;;20.55;65.92;101801.84;5056822;28;20202;-67
2021/07/09 00:11:14;;;;;;;3.57;2.20;;;;;;;20.56;66.55;101793.50;5059433;28;20260;-67
2021/07/09 00:13:46;;;;;;;2.37;2.17;;;;;;;20.55;66.21;101789.06;5057388;28;20228;-67
2021/07/09 00:16:19;;;;;;;2.80;2.30;;;;;;;20.47;66.52;101767.03;5058196;28;20205;-69
2021/07/09 00:18:50;;;;;;;4.27;2.20;;;;;;;20.49;66.75;101761.44;5062154;28;20831;-69
2021/07/09 00:21:18;;;;;;;2.47;2.27;;;;;;;20.45;66.78;101766.31;5059753;28;20320;-68
2021/07/09 00:23:47;;;;;;;2.30;2.10;;;;;;;20.44;66.97;101762.72;5061079;28;20200;-69
2021/07/09 00:26:15;;;;;;;2.83;2.33;;;;;;;20.45;66.48;101755.41;5060630;28;20189;-68
2021/07/09 00:28:43;;;;;;;4.63;2.30;;;;;;;20.45;66.46;101748.09;5061159;28;20211;-67
2021/07/09 00:31:13;;;;;;;2.30;2.10;;;;;;;20.43;66.85;101741.03;5054975;28;20206;-68
2021/07/09 00:33:41;;;;;;;6.07;2.27;;;;;;;20.41;66.67;101745.78;5064759;28;20716;-67
2021/07/09 00:36:09;;;;;;;2.33;2.13;;;;;;;20.40;66.99;101754.97;5060386;28;20272;-67
2021/07/09 00:38:37;;;;;;;2.50;2.30;;;;;;;20.38;66.49;101755.09;5058699;28;20201;-68
2021/07/09 00:41:06;;;;;;;4.03;2.27;;;;;;;20.01;67.29;101699.50;5061158;28;20198;-68
2021/07/09 00:43:37;;;;;;;3.90;2.20;;;;;;;20.33;67.42;101754.66;5061441;28;20274;-69
2021/07/09 00:46:06;;;;;;;2.57;2.37;;;;;;;20.31;67.38;101748.50;5060028;28;20189;-68
2021/07/09 00:48:36;;;;;;;2.90;2.43;;;;;;;20.26;67.33;101750.78;5057938;28;20606;-69
2021/07/09 00:51:06;;;;;;;2.27;2.07;;;;;;;20.21;67.96;101766.72;5058210;28;20876;-68
2021/07/09 00:53:35;;;;;;;2.70;2.50;;;;;;;20.15;68.40;101764.53;5059059;28;20252;-69
2021/07/09 00:56:04;;;;;;;2.57;2.37;;;;;;;20.13;68.13;101767.41;5057083;28;20209;-68
2021/07/09 00:58:33;;;;;;;2.60;2.30;;;;;;;20.16;67.83;101779.91;5055919;28;20213;-69
2021/07/09 01:01:01;;;;;;;2.50;2.30;;;;;;;20.19;67.26;101793.25;5055407;28;20591;-68
2021/07/09 01:03:30;;;;;;;3.50;2.47;;;;;;;20.20;67.07;101803.16;5052560;28;20190;-69
2021/07/09 01:05:59;;;;;;;4.87;2.20;;;;;;;20.20;67.04;101800.44;5046498;28;20669;-69
2021/07/09 01:08:27;;;;;;;3.30;2.57;;;;;;;20.15;67.07;101795.41;5045348;28;20186;-68
2021/07/09 01:10:55;;;;;;;2.93;2.03;;;;;;;20.22;65.78;101809.38;5054028;28;20233;-69
2021/07/09 01:13:24;;;;;;;2.40;2.20;;;;;;;20.24;65.62;101814.69;5042182;28;20198;-68
2021/07/09 01:15:52;;;;;;;3.83;2.40;;;;;;;20.24;65.07;101822.88;5042558;28;20241;-67
2021/07/09 01:18:21;;;;;;;2.57;2.17;;;;;;;20.24;65.07;101814.69;5041499;28;20209;-67
2021/07/09 01:20:49;;;;;;;5.97;2.63;;;;;;;20.19;65.69;101816.94;5042618;28;20210;-68
2021/07/09 01:23:20;;;;;;;2.47;2.27;;;;;;;20.02;67.90;101824.81;5036804;28;20715;-67
2021/07/09 01:25:49;;;;;;;2.90;2.20;;;;;;;19.97;68.13;101827.09;5040623;28;20197;-67
2021/07/09 01:28:17;;;;;;;2.90;2.30;;;;;;;19.73;68.45;101782.94;5054864;28;20201;-67
2021/07/09 01:30:46;;;;;;;2.53;2.20;;;;;;;19.98;67.44;101831.56;5048904;28;20194;-68
2021/07/09 01:33:14;;;;;;;2.70;2.50;;;;;;;19.99;67.54;101816.91;5040349;28;20230;-67
2021/07/09 01:35:42;;;;;;;2.50;2.30;;;;;;;19.99;67.90;101825.09;5039171;28;20588;-68
2021/07/09 01:38:10;;;;;;;2.50;2.30;;;;;;;19.98;68.00;101819.78;5041333;28;20256;-67
2021/07/09 01:40:40;;;;;;;2.60;2.40;;;;;;;19.99;67.69;101822.38;5042540;28;20206;-68
2021/07/09 01:43:09;;;;;;;2.57;2.30;;;;;;;19.98;68.06;101807.00;5042422;28;20214;-67
2021/07/09 01:45:38;;;;;;;2.63;2.13;;;;;;;19.98;67.91;101808.88;5047350;28;20221;-69
2021/07/09 01:48:06;;;;;;;2.83;2.63;;;;;;;19.97;67.89;101816.19;5039879;28;20197;-67
2021/07/09 01:50:35;;;;;;;4.07;2.20;;;;;;;19.97;67.93;101805.28;5036764;28;20251;-68
2021/07/09 01:53:04;;;;;;;3.57;2.40;;;;;;;19.98;67.22;101792.50;5040810;28;20213;-68
2021/07/09 01:55:32;;;;;;;2.70;2.50;;;;;;;19.95;67.97;101790.06;5038188;28;20302;-67
2021/07/09 01:58:00;;;;;;;3.23;2.20;;;;;;;19.91;68.70;101792.22;5039418;28;20202;-69
2021/07/09 02:00:30;;;;;;;4.27;2.37;;;;;;;19.87;68.54;101790.72;5042053;28;20589;-69
2021/07/09 02:02:58;;;;;;;2.60;2.40;;;;;;;19.85;68.21;101785.41;5052145;28;20599;-66
2021/07/09 02:05:26;;;;;;;3.50;2.23;;;;;;;19.86;68.38;101789.00;5046235;28;20190;-67
2021/07/09 02:07:56;;;;;;;2.50;2.30;;;;;;;19.84;68.85;101794.59;5046491;28;20200;-67
2021/07/09 02:10:25;;;;;;;2.67;2.20;;;;;;;19.83;68.44;101789.28;5058375;28;20189;-68
2021/07/09 02:12:55;;;;;;;3.13;2.67;;;;;;;19.82;68.84;101788.41;5044075;28;20198;-68
2021/07/09 02:15:25;;;;;;;2.93;2.50;;;;;;;19.82;68.33;101787.56;5040364;28;20681;-68
2021/07/09 02:17:55;;;;;;;2.57;2.37;;;;;;;19.81;68.35;101796.75;5036191;28;20217;-68
2021/07/09 02:20:24;;;;;;;2.43;2.20;;;;;;;19.80;68.61;101795.00;5041371;28;20198;-68
2021/07/09 02:22:55;;;;;;;3.80;2.33;;;;;;;19.81;68.06;101791.28;5046436;28;20212;-68
2021/07/09 02:25:24;;;;;;;3.60;2.70;;;;;;;19.82;67.78;101795.75;5038502;28;20206;-68
2021/07/09 02:27:55;;;;;;;3.27;2.43;;;;;;;19.81;68.33;101796.75;5047813;28;20255;-68
2021/07/09 02:30:24;;;;;;;4.40;2.70;;;;;;;19.81;67.89;101797.59;5042009;28;20230;-68
2021/07/09 02:32:53;;;;;;;3.83;2.40;;;;;;;19.78;67.86;101797.03;5038939;28;20253;-68
2021/07/09 02:35:24;;;;;;;2.90;2.30;;;;;;;19.80;68.11;101795.00;5040094;28;20209;-69
2021/07/09 02:37:54;;;;;;;4.37;2.73;;;;;;;19.79;68.21;101785.97;5037951;28;20735;-68
2021/07/09 02:40:26;;;;;;;4.40;2.50;;;;;;;19.77;68.89;101784.38;5044265;28;20198;-69
2021/07/09 02:42:57;;;;;;;2.40;2.20;;;;;;;19.75;68.57;101780.94;5040993;28;20288;-68
2021/07/09 02:45:27;;;;;;;4.73;2.80;;;;;;;19.53;68.75;101757.47;5037147;28;20273;-68
2021/07/09 02:48:14;;;;;;;2.73;2.53;;;;;;;19.58;69.09;101768.81;5047741;28;20198;-68
2021/07/09 02:50:44;;;;;;;2.57;2.33;;;;;;;19.50;69.65;101742.22;5057553;28;20202;-69
2021/07/09 02:53:12;;;;;;;2.80;2.60;;;;;;;19.62;69.91;101769.44;5049258;28;20198;-69
2021/07/09 02:55:40;;;;;;;4.17;2.67;;;;;;;19.64;68.89;101771.00;5051944;28;20568;-67
2021/07/09 02:58:09;;;;;;;2.97;2.60;;;;;;;19.67;68.75;101780.78;5048641;28;20209;-67
2021/07/09 03:00:37;;;;;;;2.67;2.47;;;;;;;19.69;68.22;101776.91;5052787;28;20202;-67
2021/07/09 03:03:05;;;;;;;4.33;2.50;;;;;;;19.72;68.72;101773.03;5061189;28;20193;-67
2021/07/09 03:05:33;;;;;;;4.03;2.80;;;;;;;19.73;68.75;101785.66;5055712;28;20198;-68
2021/07/09 03:08:03;;;;;;;2.23;2.13;;;;;;;19.72;69.34;101782.09;5058070;28;20668;-67
2021/07/09 03:10:31;;;;;;;3.10;2.80;;;;;;;19.73;69.20;101786.53;5058046;28;20208;-68
2021/07/09 03:13:00;;;;;;;3.40;2.50;;;;;;;19.74;68.63;101790.13;5063594;28;20201;-68
2021/07/09 03:15:28;;;;;;;3.80;2.70;;;;;;;19.76;69.27;101788.97;5043616;28;20218;-68
2021/07/09 03:17:56;;;;;;;3.43;2.70;;;;;;;19.78;68.50;101786.13;5040592;28;20205;-68
2021/07/09 03:20:24;;;;;;;3.27;2.80;;;;;;;19.70;68.40;101766.88;5040013;28;20212;-68
2021/07/09 03:22:52;;;;;;;3.83;2.53;;;;;;;19.83;67.92;101783.84;5046229;28;20198;-69
2021/07/09 03:25:22;;;;;;;2.77;2.57;;;;;;;19.84;68.61;101791.88;5052523;28;20190;-67
2021/07/09 03:27:50;;;;;;;3.37;2.77;;;;;;;19.83;68.83;101786.56;5040527;28;20205;-68
2021/07/09 03:30:19;;;;;;;3.47;2.70;;;;;;;19.85;68.93;101779.97;5042621;28;20202;-68
2021/07/09 03:32:47;;;;;;;4.57;2.90;;;;;;;19.83;69.51;101778.38;5038015;28;20225;-68
2021/07/09 03:35:15;;;;;;;7.73;3.00;;;;;;;19.78;69.42;101775.22;5036303;28;21011;-67
2021/07/09 03:37:44;;;;;;;3.70;2.90;;;;;;;19.71;69.95;101760.41;5043636;28;20198;-68
2021/07/09 03:40:12;;;;;;;3.13;2.80;;;;;;;19.79;70.09;101764.16;5038919;28;20209;-68
2021/07/09 03:42:42;;;;;;;3.67;2.83;;;;;;;19.82;69.33;101771.19;5044175;28;20209;-69
2021/07/09 03:45:11;;;;;;;5.33;2.80;;;;;;;19.84;69.76;101780.09;5038713;28;20201;-68
2021/07/09 03:47:39;;;;;;;3.47;3.10;;;;;;;19.88;69.51;101787.00;5047820;28;20236;-69
2021/07/09 03:50:08;;;;;;;3.93;3.30;;;;;;;19.91;69.53;101792.22;5039605;28;20863;-68
2021/07/09 03:52:37;;;;;;;3.10;2.80;;;;;;;19.85;70.54;101766.31;5043071;28;20261;-68
2021/07/09 03:55:07;;;;;;;3.03;2.73;;;;;;;19.93;70.85;101784.75;5040979;28;20207;-69
2021/07/09 03:57:36;;;;;;;4.37;2.90;;;;;;;19.92;71.61;101788.47;5045922;28;20308;-68
2021/07/09 04:00:08;;;;;;;3.07;2.73;;;;;;;19.95;72.14;101796.38;5046377;28;20211;-68
2021/07/09 04:02:41;;;;;;;3.13;2.83;;;;;;;19.89;72.36;101776.94;5062623;28;20316;-68
2021/07/09 04:05:11;;;;;;;3.40;2.93;;;;;;;19.95;72.67;101777.28;5049565;28;20244;-69
2021/07/09 04:07:40;;;;;;;5.00;2.87;;;;;;;19.80;73.09;101746.81;5045202;28;20293;-69
2021/07/09 04:10:09;;;;;;;4.47;2.63;;;;;;;20.05;73.25;101775.44;5057670;28;20214;-67
2021/07/09 04:12:37;;;;;;;4.73;2.90;;;;;;;20.13;73.05;101785.63;5051657;28;20214;-68
2021/07/09 04:15:08;;;;;;;6.07;3.10;;;;;;;19.96;72.48;101746.28;5039601;28;20224;-68
2021/07/09 04:17:36;;;;;;;3.47;2.87;;;;;;;20.25;72.26;101781.81;5037834;28;20710;-68
2021/07/09 04:20:06;;;;;;;3.67;2.97;;;;;;;20.03;72.75;101727.50;5042497;28;20201;-68
2021/07/09 04:22:34;;;;;;;5.50;2.93;;;;;;;20.14;72.45;101730.06;5040105;28;20208;-67
2021/07/09 04:25:03;;;;;;;3.90;2.83;;;;;;;20.53;72.32;101771.97;5046602;28;20194;-67
2021/07/09 04:27:32;;;;;;;3.20;2.80;;;;;;;20.64;72.31;101768.22;5048258;28;20201;-67
2021/07/09 04:30:00;;;;;;;5.33;2.90;;;;;;;20.81;72.03;101763.88;5048847;28;20202;-67
2021/07/09 04:32:29;;;;;;;3.30;2.80;;;;;;;20.90;72.28;101763.03;5004959;28;1227368;-67
2021/07/09 04:34:58;;;;;;;4.87;2.70;;;;;;;20.95;72.14;101757.97;5057329;28;20304;-68
2021/07/09 04:37:26;;;;;;;2.77;2.57;;;;;;;21.04;71.49;101757.09;5049409;28;20226;-67
2021/07/09 04:39:54;;;;;;;6.23;2.50;;;;;;;21.07;71.31;101744.00;5049461;28;20209;-71
2021/07/09 04:42:22;;;;;;;2.90;2.70;;;;;;;21.15;71.58;101745.16;5044716;28;20198;-70
2021/07/09 04:44:50;;;;;;;2.90;2.60;;;;;;;21.26;70.72;101743.13;5058687;28;20193;-71
2021/07/09 04:47:18;;;;;;;3.53;2.60;;;;;;;21.25;70.81;101752.31;5047935;28;20210;-69
2021/07/09 04:49:48;;;;;;;2.87;2.67;;;;;;;21.25;70.84;101741.41;5056711;28;20209;-70
2021/07/09 04:52:16;;;;;;;2.80;2.60;;;;;;;21.09;71.08;101727.44;5048815;28;20730;-70
2021/07/09 04:54:44;;;;;;;3.13;2.80;;;;;;;21.26;71.12;101748.59;5049879;28;20891;-69
2021/07/09 04:57:12;;;;;;;3.07;2.87;;;;;;;21.24;70.99;101745.13;5047548;28;20221;-76
2021/07/09 04:59:40;;;;;;;4.53;3.07;;;;;;;21.22;71.12;101740.81;5053542;28;20218;-69
2021/07/09 05:02:08;;;;;;;3.93;3.00;;;;;;;21.28;71.09;101746.56;5058799;28;20661;-68
2021/07/09 05:04:36;;;;;;;4.50;2.80;;;;;;;21.25;71.41;101746.84;5061656;28;20198;-70
2021/07/09 05:07:06;;;;;;;4.37;3.00;;;;;;;21.25;71.53;101740.53;5052574;28;20201;-69
2021/07/09 05:09:34;;;;;;;3.23;2.80;;;;;;;21.26;72.05;101743.13;5048759;28;20269;-69
2021/07/09 05:12:03;;;;;;;2.73;2.53;;;;;;;21.19;71.79;101746.56;5055144;28;20202;-70
2021/07/09 05:14:31;;;;;;;5.13;3.00;;;;;;;21.22;71.71;101747.13;5046433;28;20208;-69
2021/07/09 05:16:59;;;;;;;3.40;2.60;;;;;;;21.23;72.33;101739.78;5040026;28;20402;-69
2021/07/09 05:19:27;;;;;;;4.17;2.60;;;;;;;21.27;71.97;101744.84;5053862;28;20312;-69
2021/07/09 05:21:55;;;;;;;2.90;2.60;;;;;;;21.31;71.86;101740.78;5062589;28;20208;-70
2021/07/09 05:24:26;;;;;;;3.50;3.20;;;;;;;21.38;72.23;101735.59;5038165;28;20211;-70
2021/07/09 05:26:55;;;;;;;5.87;2.77;;;;;;;21.20;72.38;101693.63;5035407;28;20678;-70
2021/07/09 05:29:23;;;;;;;3.03;2.73;;;;;;;21.55;72.42;101734.81;5032427;28;20200;-70
2021/07/09 05:31:53;;;;;;;3.07;2.77;;;;;;;21.67;71.82;101730.84;5044126;28;20628;-70
2021/07/09 05:34:22;;;;;;;3.10;2.80;;;;;;;21.23;72.76;101666.91;5044367;28;20680;-70
2021/07/09 05:36:50;;;;;;;2.67;2.47;;;;;;;21.70;72.83;101737.88;5044900;28;20730;-70
2021/07/09 05:39:19;;;;;;;2.50;2.30;;;;;;;21.81;72.51;101732.22;5045069;28;20194;-70
2021/07/09 05:41:49;;;;;;;3.63;2.80;;;;;;;21.92;73.12;101723.81;5039255;28;20249;-70
2021/07/09 05:44:17;;;;;;;6.23;2.87;;;;;;;22.11;72.60;101728.31;5046547;28;20198;-71
2021/07/09 05:46:47;;;;;;;7.63;2.73;;;;;;;22.27;72.04;101727.63;5050659;28;20749;-71
2021/07/09 05:49:16;;;;;;;2.67;2.47;;;;;;;22.27;71.38;101711.19;5050335;28;20197;-71
2021/07/09 05:51:45;;;;;;;3.37;2.63;;;;;;;22.48;70.79;101739.13;5040581;28;20420;-71
2021/07/09 05:54:13;;;;;;;2.20;2.00;;;;;;;22.57;70.31;101746.38;5038016;28;20240;-70
2021/07/09 05:56:41;;;;;;;2.70;2.50;;;;;;;22.68;69.90;101749.91;5048970;28;20233;-71
2021/07/09 05:59:11;;;;;;;7.13;2.40;;;;;;;22.67;69.64;101753.69;5052307;28;20194;-71
2021/07/09 06:01:39;;;;;;;2.30;2.10;;;;;;;22.49;68.79;101721.69;5048136;28;20216;-70
2021/07/09 06:04:08;;;;;;;4.37;2.30;;;;;;;22.53;68.75;101734.03;5040961;28;20190;-69
2021/07/09 06:06:36;;;;;;;2.93;2.23;;;;;;;22.59;68.52;101741.59;5056065;28;20283;-71
2021/07/09 06:09:04;;;;;;;2.37;2.10;;;;;;;22.75;67.64;101745.53;5049602;28;20225;-71
2021/07/09 06:11:32;;;;;;;4.03;2.20;;;;;;;22.78;68.03;101731.50;5038289;28;20217;-71
2021/07/09 06:14:00;;;;;;;2.57;2.13;;;;;;;22.76;68.81;101739.03;5065890;28;20204;-70
2021/07/09 06:16:30;;;;;;;2.40;2.20;;;;;;;22.73;68.69;101734.72;5040275;28;20583;-70
2021/07/09 06:18:59;;;;;;;2.40;2.20;;;;;;;22.75;68.02;101745.53;5046616;28;20198;-71
2021/07/09 06:21:27;;;;;;;2.63;2.10;;;;;;;22.82;68.25;101746.63;5039031;28;20191;-73
2021/07/09 06:23:55;;;;;;;2.20;2.00;;;;;;;22.68;67.46;101741.72;5037918;28;20637;-70
2021/07/09 06:26:23;;;;;;;3.07;2.10;;;;;;;22.51;67.39;101705.09;5037740;28;20191;-70
2021/07/09 06:28:52;;;;;;;3.47;2.47;;;;;;;22.74;66.92;101722.75;5039141;28;20305;-70
2021/07/09 06:31:20;;;;;;;3.87;2.03;;;;;;;22.74;67.72;101719.16;5040204;28;20720;-71
2021/07/09 06:33:50;;;;;;;6.63;2.60;;;;;;;22.84;67.17;101719.94;5052489;28;20194;-71
2021/07/09 06:36:18;;;;;;;3.17;2.10;;;;;;;22.89;67.42;101726.66;5051284;28;20400;-70
2021/07/09 06:38:47;;;;;;;5.13;2.27;;;;;;;22.93;67.38;101729.94;5046407;28;20240;-69
2021/07/09 06:41:15;;;;;;;2.40;2.17;;;;;;;22.96;67.42;101737.84;5054140;28;20574;-69
2021/07/09 06:43:43;;;;;;;7.20;2.60;;;;;;;22.98;67.35;101744.03;5042605;28;20277;-70
2021/07/09 06:46:12;;;;;;;4.40;2.13;;;;;;;22.95;66.73;101740.72;5050441;28;20210;-69
2021/07/09 06:48:40;;;;;;;3.53;2.30;;;;;;;22.90;66.52;101741.22;5044140;28;20217;-70
2021/07/09 06:51:12;;;;;;;2.47;2.20;;;;;;;22.89;65.89;101725.78;5052627;28;20206;-70
2021/07/09 06:53:41;;;;;;;3.27;1.83;;;;;;;22.86;66.59;101731.59;5046636;28;20209;-70
2021/07/09 06:56:09;;;;;;;3.80;2.10;;;;;;;22.51;66.61;101658.53;5049933;28;20644;-68
2021/07/09 06:58:37;;;;;;;4.30;2.33;;;;;;;22.92;65.91;101718.09;5055245;28;20226;-71
2021/07/09 07:01:05;;;;;;;3.13;2.10;;;;;;;22.92;65.83;101728.22;5060590;28;20205;-71
2021/07/09 07:03:35;;;;;;;5.17;2.17;;;;;;;22.91;66.25;101734.72;5068925;28;20205;-70
2021/07/09 07:06:04;;;;;;;4.10;2.27;;;;;;;22.88;66.19;101748.72;5044111;28;20209;-70
2021/07/09 07:08:33;;;;;;;2.23;2.03;;;;;;;22.82;65.96;101727.47;5044625;28;20198;-70
2021/07/09 07:11:01;;;;;;;4.83;2.30;;;;;;;22.82;66.57;101735.69;5044352;28;20316;-71
2021/07/09 07:13:29;;;;;;;2.80;2.20;;;;;;;22.79;66.42;101723.13;5044440;28;20201;-71
2021/07/09 07:15:58;;;;;;;3.93;2.07;;;;;;;22.79;66.97;101727.75;5049105;28;20209;-71
2021/07/09 07:18:26;;;;;;;4.90;2.30;;;;;;;22.79;66.64;101733.22;5052596;28;20814;-73
2021/07/09 07:20:55;;;;;;;3.57;2.70;;;;;;;22.82;66.81;101717.34;5048581;28;20651;-71
2021/07/09 07:23:23;;;;;;;2.50;2.30;;;;;;;22.98;66.98;101721.25;5063008;28;20205;-72
2021/07/09 07:25:53;;;;;;;3.90;2.57;;;;;;;23.03;67.99;101725.22;5048877;28;20205;-71
2021/07/09 07:28:21;;;;;;;4.73;2.47;;;;;;;23.15;67.94;101723.91;5055208;28;20265;-71
2021/07/09 07:31:07;;;;;;;6.30;2.43;;;;;;;23.19;67.14;101722.56;5048087;28;20676;-71
2021/07/09 07:33:35;;;;;;;4.33;2.13;;;;;;;23.38;66.38;101712.41;5056109;28;20742;-71
2021/07/09 07:36:19;;;;;;;3.33;1.80;;;;;;;23.22;65.51;101719.50;5051424;28;20201;-71
2021/07/09 07:38:48;;;;;;;5.53;2.00;;;;;;;23.27;64.93;101718.19;5056393;28;20217;-71
2021/07/09 07:41:19;;;;;;;5.57;2.20;;;;;;;23.28;64.83;101720.75;5048405;28;20312;-69
2021/07/09 07:43:48;;;;;;;2.47;1.97;;;;;;;22.92;63.49;101679.75;5053828;28;20198;-70
2021/07/09 07:46:17;;;;;;;3.27;2.13;;;;;;;23.18;63.67;101709.88;5048229;28;20281;-70
2021/07/09 07:48:46;;;;;;;2.10;1.87;;;;;;;23.14;64.72;101674.75;5049672;28;20624;-70
2021/07/09 07:51:14;;;;;;;3.27;1.97;;;;;;;23.34;64.25;101683.59;5049343;28;20681;-69
2021/07/09 07:53:42;;;;;;;2.53;1.97;;;;;;;23.76;63.54;101736.59;5049064;28;20229;-69
2021/07/09 07:56:10;;;;;;;3.57;1.90;;;;;;;23.68;62.66;101736.56;5060017;28;20213;-69
2021/07/09 07:58:40;;;;;;;1.93;1.70;;;;;;;23.84;63.29;101739.38;5057495;28;20233;-69
2021/07/09 08:01:09;;;;;;;2.03;1.80;;;;;;;23.98;61.00;101737.88;5052804;28;20280;-69
2021/07/09 08:03:38;;;;;;;1.90;1.70;;;;;;;24.05;59.95;101735.31;5048676;28;20217;-69
2021/07/09 08:06:07;;;;;;;2.80;1.73;;;;;;;24.17;59.03;101729.34;5045212;28;20305;-70
2021/07/09 08:08:36;;;;;;;4.47;1.77;;;;;;;24.32;58.95;101729.59;5048646;28;20395;-70
2021/07/09 08:11:04;;;;;;;1.63;1.40;;;;;;;24.32;54.85;101732.31;5048831;28;20673;-70
2021/07/09 08:13:32;;;;;;;2.87;1.60;;;;;;;24.58;55.50;101734.94;5048051;28;20205;-70
2021/07/09 08:16:02;;;;;;;3.40;1.50;;;;;;;24.79;54.10;101731.66;5048965;28;20201;-70
2021/07/09 08:18:31;;;;;;;1.50;1.40;;;;;;;25.04;53.91;101740.78;5048305;28;20222;-70
2021/07/09 08:20:59;;;;;;;2.50;1.67;;;;;;;25.11;52.58;101739.06;5050039;28;20202;-68
2021/07/09 08:23:28;;;;;;;2.33;1.50;;;;;;;25.48;53.76;101729.34;5058095;28;20190;-69
2021/07/09 08:25:56;;;;;;;6.03;1.63;;;;;;;25.84;52.19;101724.22;5047690;28;20198;-69
2021/07/09 08:28:24;;;;;;;2.37;1.53;;;;;;;26.06;50.39;101737.19;5048201;28;20829;-70
2021/07/09 08:30:53;;;;;;;1.30;1.20;;;;;;;25.94;49.74;101739.47;5048669;28;20197;-70
2021/07/09 08:33:22;;;;;;;3.80;1.35;;;;;;;25.78;48.90;101738.72;5059560;28;20468;-69
2021/07/09 08:35:51;;;;;;;3.45;1.65;;;;;;;25.88;48.79;101733.81;5045095;28;20277;-71
2021/07/09 08:38:19;;;;;;;5.40;1.52;;;;;;;25.76;49.63;101724.28;5048930;28;20210;-70
2021/07/09 08:40:47;;;;;;;3.53;1.53;;;;;;;25.75;50.62;101733.56;5067335;28;20632;-71
2021/07/09 08:43:29;;;;;;;4.25;1.83;;;;;;;25.65;50.11;101733.72;5047856;28;20197;-72
2021/07/09 08:45:58;;;;;;;1.60;1.27;;;;;;;25.31;48.92;101701.00;5059706;28;20212;-71
2021/07/09 08:48:29;;;;;;;1.60;1.50;;;;;;;25.69;50.39;101724.09;5064012;28;20200;-71
2021/07/09 08:50:59;;;;;;;1.48;1.38;;;;;;;25.81;50.08;101719.06;5056648;28;20201;-70
2021/07/09 08:53:28;;;;;;;2.75;1.42;;;;;;;26.05;49.93;101724.47;5050445;28;20196;-70
2021/07/09 08:55:56;;;;;;;1.33;1.15;;;;;;;26.41;48.76;101721.16;5066745;28;20476;-69
2021/07/09 08:58:25;;;;;;;2.40;1.42;;;;;;;26.72;47.92;101729.34;5051341;28;20599;-71
2021/07/09 09:00:53;;;;;;;2.92;1.40;;;;;;;27.11;48.42;101720.88;5063228;28;20215;-70
2021/07/09 09:03:24;;;;;;;2.55;1.38;;;;;;;27.30;46.71;101725.84;5056519;28;20205;-70
2021/07/09 09:06:00;;;;;;;1.20;1.10;;;;;;;27.40;46.03;101722.81;5046953;28;20193;-71
2021/07/09 09:08:30;;;;;;;1.50;1.40;;;;;;;27.80;46.77;101726.97;5048003;28;20193;-71
2021/07/09 09:10:59;;;;;;;1.33;1.15;;;;;;;27.68;44.26;101718.34;5042064;28;20568;-71
2021/07/09 09:13:29;;;;;;;1.20;1.10;;;;;;;27.52;42.08;101715.75;5034639;28;20210;-71
2021/07/09 09:16:00;;;;;;;1.00;1.00;;;;;;;27.58;43.30;101706.72;5043563;28;20894;-71
2021/07/09 09:18:35;;;;;;;1.00;1.00;;;;;;;27.68;43.05;101704.53;5038225;28;20704;-69
2021/07/09 09:21:07;;;;;;;1.17;1.10;;;;;;;27.82;43.72;101676.03;5037818;28;20206;-71
2021/07/09 09:23:37;;;;;;;3.47;1.20;;;;;;;27.88;42.94;101691.00;5032534;28;20747;-71
2021/07/09 09:26:07;;;;;;;1.98;1.08;;;;;;;28.16;43.01;101693.81;5037931;28;20212;-71
2021/07/09 09:28:37;;;;;;;1.85;1.35;;;;;;;28.32;43.97;101660.47;5037441;28;20596;-71
2021/07/09 09:31:05;;;;;;;1.10;1.00;;;;;;;28.12;43.33;101679.56;5033204;28;20205;-71
2021/07/09 09:33:35;;;;;;;1.85;1.40;;;;;;;28.02;42.52;101681.78;5044664;28;20310;-71
2021/07/09 09:36:09;;;;;;;2.65;1.10;;;;;;;28.00;42.69;101689.41;5040872;28;20664;-71
2021/07/09 09:38:37;;;;;;;2.10;1.25;;;;;;;28.00;41.28;101692.19;5046858;28;20417;-71
2021/07/09 09:41:06;;;;;;;2.42;1.40;;;;;;;27.91;41.45;101696.13;5043549;28;20259;-71
2021/07/09 09:43:35;;;;;;;1.45;1.05;;;;;;;27.91;42.23;101687.84;5048675;28;20217;-71
2021/07/09 09:46:05;;;;;;;4.97;1.20;;;;;;;28.04;41.26;101687.97;5037387;28;20228;-72
2021/07/09 09:48:51;;;;;;;1.65;1.20;;;;;;;28.00;42.46;101683.91;5042402;28;20206;-71
2021/07/09 09:51:27;;;;;;;1.40;1.10;;;;;;;27.94;41.21;101692.97;5043203;28;20221;-71
2021/07/09 09:53:58;;;;;;;1.58;1.20;;;;;;;27.87;42.42;101692.03;5030684;28;20202;-71
2021/07/09 09:56:41;;;;;;;2.20;1.30;;;;;;;27.64;42.76;101688.56;5033208;28;20454;-77
2021/07/09 09:59:14;;;;;;;1.30;1.20;;;;;;;27.70;43.94;101682.25;5047675;28;20640;-70
2021/07/09 10:01:50;;;;;;;1.23;1.13;;;;;;;27.51;44.02;101673.47;5044495;28;20209;-71
2021/07/09 10:04:19;;;;;;;3.60;1.20;;;;;;;27.52;44.26;101672.44;5045797;28;20213;-72
2021/07/09 10:06:49;;;;;;;7.43;1.25;;;;;;;27.42;43.82;101679.31;5046948;28;20720;-71
2021/07/09 10:09:18;;;;;;;2.53;1.30;;;;;;;27.30;42.94;101683.63;5050518;28;20205;-72
2021/07/09 10:11:47;;;;;;;1.00;1.00;;;;;;;27.29;43.78;101676.38;5053875;28;20194;-71
2021/07/09 10:14:17;;;;;;;5.82;1.45;;;;;;;27.23;44.29;101680.72;5045796;28;20228;-71
2021/07/09 10:16:47;;;;;;;1.20;1.15;;;;;;;26.84;42.81;101672.69;5051934;28;20206;-71
2021/07/09 10:19:20;;;;;;;1.05;1.00;;;;;;;26.82;43.20;101672.03;5045177;28;21372;-71
2021/07/09 10:21:50;;;;;;;1.38;1.27;;;;;;;26.97;44.41;101670.16;5044525;28;20194;-70
2021/07/09 10:24:19;;;;;;;1.48;1.13;;;;;;;26.81;44.97;101631.72;5043402;28;20194;-70
2021/07/09 10:26:51;;;;;;;6.28;1.35;;;;;;;26.85;44.23;101671.66;5042942;28;20206;-70
2021/07/09 10:29:21;;;;;;;1.20;1.10;;;;;;;26.96;43.88;101654.66;5038948;28;20626;-71
2021/07/09 10:31:51;;;;;;;1.92;1.27;;;;;;;27.08;44.35;101652.31;5044153;28;20237;-71
2021/07/09 10:34:35;;;;;;;2.10;1.10;;;;;;;26.94;44.26;101642.97;5049626;28;20201;-71
2021/07/09 10:37:07;;;;;;;2.88;1.20;;;;;;;26.98;44.35;101654.47;5040198;28;20190;-70
2021/07/09 10:39:38;;;;;;;1.15;1.05;;;;;;;26.48;44.22;101609.13;5047595;28;20214;-70
2021/07/09 10:42:25;;;;;;;2.75;1.30;;;;;;;26.51;45.03;101653.72;5045243;28;20696;-71
2021/07/09 10:45:03;;;;;;;1.20;1.10;;;;;;;26.46;44.13;101660.81;5043029;28;20204;-71
2021/07/09 10:47:39;;;;;;;1.88;1.13;;;;;;;26.36;44.05;101651.97;5046104;28;20205;-71
2021/07/09 10:50:09;;;;;;;2.15;1.23;;;;;;;26.38;44.99;101652.63;5046433;28;20208;-71
2021/07/09 10:52:49;;;;;;;2.65;1.38;;;;;;;26.27;44.97;101656.63;5040216;28;20306;-68
2021/07/09 10:55:43;;;;;;;1.30;1.20;;;;;;;26.21;45.17;101638.09;5045554;28;20687;-69
2021/07/09 10:58:26;;;;;;;1.63;1.30;;;;;;;26.53;47.21;101636.97;5051921;28;20213;-69
2021/07/09 11:00:56;;;;;;;1.40;1.30;;;;;;;26.41;46.13;101632.97;5049712;28;20222;-69
2021/07/09 11:03:43;;;;;;;2.83;1.30;;;;;;;26.33;45.72;101628.38;5043721;28;20251;-68
2021/07/09 11:06:19;;;;;;;3.92;1.52;;;;;;;26.22;46.70;101635.16;5043283;28;20202;-69
2021/07/09 11:09:03;;;;;;;2.08;1.40;;;;;;;26.20;46.94;101628.97;5045686;28;20664;-71
2021/07/09 11:11:44;;;;;;;1.95;1.10;;;;;;;25.91;46.81;101617.84;5039148;28;20205;-71
2021/07/09 11:14:20;;;;;;;1.75;1.33;;;;;;;25.69;47.98;101616.75;5037387;28;20202;-71
2021/07/09 11:16:50;;;;;;;3.85;1.20;;;;;;;25.49;47.01;101630.09;5047469;28;20672;-70
2021/07/09 11:19:30;;;;;;;1.42;1.30;;;;;;;25.25;46.99;101624.72;5038155;28;20580;-71
2021/07/09 11:22:06;;;;;;;1.90;1.45;;;;;;;25.19;47.22;101622.69;5048697;28;20202;-71
2021/07/09 11:24:51;;;;;;;3.55;1.30;;;;;;;25.12;49.04;101610.69;5052250;28;20214;-71
2021/07/09 11:27:25;;;;;;;3.65;1.42;;;;;;;24.91;48.08;101567.25;5054511;28;20616;-71
2021/07/09 11:30:01;;;;;;;1.15;1.13;;;;;;;25.27;49.14;101619.88;5054484;28;20520;-72
2021/07/09 11:32:34;;;;;;;4.35;1.30;;;;;;;25.30;48.66;101614.03;5046138;28;20324;-71
2021/07/09 11:35:03;;;;;;;1.80;1.30;;;;;;;25.24;49.02;101610.09;5050857;28;20200;-71
2021/07/09 11:37:33;;;;;;;1.60;1.43;;;;;;;25.31;49.23;101616.59;5055069;28;20198;-72